sensor_id;sensor_type;location;lat;lon;timestamp;P1;durP1;ratioP1;P2;durP2;ratioP2
64903;SDS011;51401;48.882;12.598;2023-03-23T00:00:49;8.15;;;5.80;;
64903;SDS011;51401;48.882;12.598;2023-03-23T00:03:15;10.77;;;6.60;;
64903;SDS011;51401;48.882;12.598;2023-03-23T00:05:40;7.78;;;5.50;;
64903;SDS011;51401;48.882;12.598;2023-03-23T00:08:15;7.38;;;5.38;;
64903;SDS011;51401;48.882;12.598;2023-03-23T00:10:42;6.72;;;6.03;;
64903;SDS011;51401;48.882;12.598;2023-03-23T00:13:07;10.53;;;5.90;;
64903;SDS011;51401;48.882;12.598;2023-03-23T00:15:32;7.47;;;5.93;;
64903;SDS011;51401;48.882;12.598;2023-03-23T00:17:58;8.15;;;6.22;;
64903;SDS011;51401;48.882;12.598;2023-03-23T00:20:28;7.30;;;6.07;;
64903;SDS011;51401;48.882;12.598;2023-03-23T00:23:05;7.53;;;6.07;;
64903;SDS011;51401;48.882;12.598;2023-03-23T00:25:32;7.43;;;5.75;;
64903;SDS011;51401;48.882;12.598;2023-03-23T00:27:57;8.50;;;6.43;;
64903;SDS011;51401;48.882;12.598;2023-03-23T00:30:22;8.93;;;5.88;;
64903;SDS011;51401;48.882;12.598;2023-03-23T00:32:48;7.15;;;5.70;;
64903;SDS011;51401;48.882;12.598;2023-03-23T00:35:13;7.75;;;6.10;;
64903;SDS011;51401;48.882;12.598;2023-03-23T00:37:38;7.15;;;6.45;;
64903;SDS011;51401;48.882;12.598;2023-03-23T00:40:04;9.07;;;5.93;;
64903;SDS011;51401;48.882;12.598;2023-03-23T00:42:34;8.90;;;6.00;;
64903;SDS011;51401;48.882;12.598;2023-03-23T00:45:02;9.38;;;6.13;;
64903;SDS011;51401;48.882;12.598;2023-03-23T00:47:35;7.63;;;6.40;;
64903;SDS011;51401;48.882;12.598;2023-03-23T00:50:02;7.93;;;6.45;;
64903;SDS011;51401;48.882;12.598;2023-03-23T00:52:30;9.45;;;7.00;;
64903;SDS011;51401;48.882;12.598;2023-03-23T00:54:55;10.27;;;6.38;;
64903;SDS011;51401;48.882;12.598;2023-03-23T00:57:20;7.85;;;6.53;;
64903;SDS011;51401;48.882;12.598;2023-03-23T00:59:49;7.63;;;6.60;;
64903;SDS011;51401;48.882;12.598;2023-03-23T01:02:15;9.48;;;6.75;;
64903;SDS011;51401;48.882;12.598;2023-03-23T01:04:41;7.68;;;6.30;;
64903;SDS011;51401;48.882;12.598;2023-03-23T01:07:09;9.43;;;7.18;;
64903;SDS011;51401;48.882;12.598;2023-03-23T01:09:37;9.65;;;7.10;;
64903;SDS011;51401;48.882;12.598;2023-03-23T01:12:04;10.27;;;7.40;;
64903;SDS011;51401;48.882;12.598;2023-03-23T01:14:30;7.75;;;6.82;;
64903;SDS011;51401;48.882;12.598;2023-03-23T01:16:56;9.02;;;7.43;;
64903;SDS011;51401;48.882;12.598;2023-03-23T01:19:21;8.00;;;6.82;;
64903;SDS011;51401;48.882;12.598;2023-03-23T01:21:47;8.73;;;6.95;;
64903;SDS011;51401;48.882;12.598;2023-03-23T01:24:12;8.85;;;7.57;;
64903;SDS011;51401;48.882;12.598;2023-03-23T01:26:38;10.05;;;7.05;;
64903;SDS011;51401;48.882;12.598;2023-03-23T01:29:03;9.07;;;7.20;;
64903;SDS011;51401;48.882;12.598;2023-03-23T01:31:29;8.90;;;6.68;;
64903;SDS011;51401;48.882;12.598;2023-03-23T01:33:54;9.38;;;7.38;;
64903;SDS011;51401;48.882;12.598;2023-03-23T01:36:22;10.73;;;7.82;;
64903;SDS011;51401;48.882;12.598;2023-03-23T01:38:49;9.13;;;6.75;;
64903;SDS011;51401;48.882;12.598;2023-03-23T01:41:15;8.82;;;7.20;;
64903;SDS011;51401;48.882;12.598;2023-03-23T01:46:26;11.68;;;9.02;;
64903;SDS011;51401;48.882;12.598;2023-03-23T01:48:53;10.00;;;7.93;;
64903;SDS011;51401;48.882;12.598;2023-03-23T01:51:19;12.57;;;8.60;;
64903;SDS011;51401;48.882;12.598;2023-03-23T01:53:48;11.70;;;7.47;;
64903;SDS011;51401;48.882;12.598;2023-03-23T01:56:18;9.18;;;7.63;;
64903;SDS011;51401;48.882;12.598;2023-03-23T01:58:49;10.05;;;7.45;;
64903;SDS011;51401;48.882;12.598;2023-03-23T02:01:15;8.70;;;7.07;;
64903;SDS011;51401;48.882;12.598;2023-03-23T02:03:41;8.93;;;7.50;;
64903;SDS011;51401;48.882;12.598;2023-03-23T02:06:08;11.45;;;8.05;;
64903;SDS011;51401;48.882;12.598;2023-03-23T02:08:34;11.40;;;7.82;;
64903;SDS011;51401;48.882;12.598;2023-03-23T02:11:00;9.40;;;7.07;;
64903;SDS011;51401;48.882;12.598;2023-03-23T02:13:26;11.15;;;7.28;;
64903;SDS011;51401;48.882;12.598;2023-03-23T02:18:48;11.00;;;8.32;;
64903;SDS011;51401;48.882;12.598;2023-03-23T02:21:45;10.25;;;7.78;;
64903;SDS011;51401;48.882;12.598;2023-03-23T02:29:23;9.73;;;7.10;;
64903;SDS011;51401;48.882;12.598;2023-03-23T02:32:10;8.27;;;7.35;;
64903;SDS011;51401;48.882;12.598;2023-03-23T02:37:14;10.82;;;7.07;;
64903;SDS011;51401;48.882;12.598;2023-03-23T02:39:45;10.18;;;6.93;;
64903;SDS011;51401;48.882;12.598;2023-03-23T02:42:32;9.10;;;7.57;;
64903;SDS011;51401;48.882;12.598;2023-03-23T02:44:59;13.20;;;7.93;;
64903;SDS011;51401;48.882;12.598;2023-03-23T02:47:29;10.55;;;7.55;;
64903;SDS011;51401;48.882;12.598;2023-03-23T02:49:55;9.95;;;8.07;;
64903;SDS011;51401;48.882;12.598;2023-03-23T02:52:25;9.20;;;7.78;;
64903;SDS011;51401;48.882;12.598;2023-03-23T02:54:53;8.57;;;7.53;;
64903;SDS011;51401;48.882;12.598;2023-03-23T02:57:21;11.05;;;8.32;;
64903;SDS011;51401;48.882;12.598;2023-03-23T02:59:48;8.27;;;7.25;;
64903;SDS011;51401;48.882;12.598;2023-03-23T03:02:15;8.77;;;6.63;;
64903;SDS011;51401;48.882;12.598;2023-03-23T03:04:42;8.57;;;6.97;;
64903;SDS011;51401;48.882;12.598;2023-03-23T03:10:17;10.52;;;7.30;;
64903;SDS011;51401;48.882;12.598;2023-03-23T03:12:52;10.40;;;7.40;;
64903;SDS011;51401;48.882;12.598;2023-03-23T03:18:10;10.38;;;8.32;;
64903;SDS011;51401;48.882;12.598;2023-03-23T03:20:45;10.82;;;7.95;;
64903;SDS011;51401;48.882;12.598;2023-03-23T03:23:14;13.82;;;8.50;;
64903;SDS011;51401;48.882;12.598;2023-03-23T03:25:42;9.77;;;7.38;;
64903;SDS011;51401;48.882;12.598;2023-03-23T03:28:13;10.88;;;6.90;;
64903;SDS011;51401;48.882;12.598;2023-03-23T03:30:41;9.93;;;7.65;;
64903;SDS011;51401;48.882;12.598;2023-03-23T03:33:09;8.95;;;7.07;;
64903;SDS011;51401;48.882;12.598;2023-03-23T03:35:36;10.27;;;8.80;;
64903;SDS011;51401;48.882;12.598;2023-03-23T03:38:05;12.48;;;7.80;;
64903;SDS011;51401;48.882;12.598;2023-03-23T03:40:33;9.05;;;6.80;;
64903;SDS011;51401;48.882;12.598;2023-03-23T03:42:59;9.65;;;7.43;;
64903;SDS011;51401;48.882;12.598;2023-03-23T03:45:24;9.02;;;7.50;;
64903;SDS011;51401;48.882;12.598;2023-03-23T03:47:49;10.02;;;7.53;;
64903;SDS011;51401;48.882;12.598;2023-03-23T03:50:15;9.63;;;7.88;;
64903;SDS011;51401;48.882;12.598;2023-03-23T03:52:41;10.13;;;6.95;;
64903;SDS011;51401;48.882;12.598;2023-03-23T03:55:07;10.40;;;7.30;;
64903;SDS011;51401;48.882;12.598;2023-03-23T03:57:34;9.52;;;7.35;;
64903;SDS011;51401;48.882;12.598;2023-03-23T03:59:59;9.38;;;7.30;;
64903;SDS011;51401;48.882;12.598;2023-03-23T04:02:25;9.23;;;7.00;;
64903;SDS011;51401;48.882;12.598;2023-03-23T04:04:50;10.18;;;7.05;;
64903;SDS011;51401;48.882;12.598;2023-03-23T04:07:18;8.80;;;6.60;;
64903;SDS011;51401;48.882;12.598;2023-03-23T04:09:44;8.55;;;7.10;;
64903;SDS011;51401;48.882;12.598;2023-03-23T04:12:11;9.32;;;7.10;;
64903;SDS011;51401;48.882;12.598;2023-03-23T04:14:37;9.02;;;7.05;;
64903;SDS011;51401;48.882;12.598;2023-03-23T04:17:03;8.70;;;6.95;;
64903;SDS011;51401;48.882;12.598;2023-03-23T04:19:28;9.35;;;6.88;;
64903;SDS011;51401;48.882;12.598;2023-03-23T04:21:53;10.18;;;7.22;;
64903;SDS011;51401;48.882;12.598;2023-03-23T04:24:20;9.38;;;6.82;;
64903;SDS011;51401;48.882;12.598;2023-03-23T04:26:46;9.25;;;7.18;;
64903;SDS011;51401;48.882;12.598;2023-03-23T04:29:11;12.20;;;7.47;;
64903;SDS011;51401;48.882;12.598;2023-03-23T04:31:38;10.75;;;7.60;;
64903;SDS011;51401;48.882;12.598;2023-03-23T04:34:04;9.63;;;7.85;;
64903;SDS011;51401;48.882;12.598;2023-03-23T04:36:29;8.73;;;7.25;;
64903;SDS011;51401;48.882;12.598;2023-03-23T04:38:55;9.63;;;7.80;;
64903;SDS011;51401;48.882;12.598;2023-03-23T04:41:21;9.68;;;8.00;;
64903;SDS011;51401;48.882;12.598;2023-03-23T04:43:47;11.35;;;7.63;;
64903;SDS011;51401;48.882;12.598;2023-03-23T04:46:18;9.70;;;7.68;;
64903;SDS011;51401;48.882;12.598;2023-03-23T04:48:44;9.02;;;7.75;;
64903;SDS011;51401;48.882;12.598;2023-03-23T04:51:10;9.73;;;8.60;;
64903;SDS011;51401;48.882;12.598;2023-03-23T04:53:37;10.13;;;8.30;;
64903;SDS011;51401;48.882;12.598;2023-03-23T04:56:02;12.55;;;8.35;;
64903;SDS011;51401;48.882;12.598;2023-03-23T04:58:28;11.48;;;8.15;;
64903;SDS011;51401;48.882;12.598;2023-03-23T05:00:54;11.32;;;8.00;;
64903;SDS011;51401;48.882;12.598;2023-03-23T05:03:20;10.50;;;8.73;;
64903;SDS011;51401;48.882;12.598;2023-03-23T05:05:45;10.90;;;8.23;;
64903;SDS011;51401;48.882;12.598;2023-03-23T05:08:16;9.43;;;8.18;;
64903;SDS011;51401;48.882;12.598;2023-03-23T05:10:42;14.10;;;8.13;;
64903;SDS011;51401;48.882;12.598;2023-03-23T05:13:07;10.05;;;8.05;;
64903;SDS011;51401;48.882;12.598;2023-03-23T05:15:32;10.52;;;8.75;;
64903;SDS011;51401;48.882;12.598;2023-03-23T05:17:58;11.02;;;8.38;;
64903;SDS011;51401;48.882;12.598;2023-03-23T05:20:23;12.57;;;8.35;;
64903;SDS011;51401;48.882;12.598;2023-03-23T05:22:49;10.13;;;8.50;;
64903;SDS011;51401;48.882;12.598;2023-03-23T05:25:15;10.38;;;7.97;;
64903;SDS011;51401;48.882;12.598;2023-03-23T05:27:45;10.70;;;8.90;;
64903;SDS011;51401;48.882;12.598;2023-03-23T05:30:14;10.10;;;8.40;;
64903;SDS011;51401;48.882;12.598;2023-03-23T05:32:43;9.83;;;7.77;;
64903;SDS011;51401;48.882;12.598;2023-03-23T05:35:10;11.93;;;8.30;;
64903;SDS011;51401;48.882;12.598;2023-03-23T05:37:37;11.35;;;8.38;;
64903;SDS011;51401;48.882;12.598;2023-03-23T05:40:03;10.73;;;8.60;;
64903;SDS011;51401;48.882;12.598;2023-03-23T05:42:34;8.73;;;7.30;;
64903;SDS011;51401;48.882;12.598;2023-03-23T05:45:03;11.30;;;8.10;;
64903;SDS011;51401;48.882;12.598;2023-03-23T05:47:30;10.02;;;8.52;;
64903;SDS011;51401;48.882;12.598;2023-03-23T05:49:55;10.57;;;8.07;;
64903;SDS011;51401;48.882;12.598;2023-03-23T05:52:21;9.52;;;8.32;;
64903;SDS011;51401;48.882;12.598;2023-03-23T05:54:48;10.05;;;7.60;;
64903;SDS011;51401;48.882;12.598;2023-03-23T05:57:14;10.77;;;8.65;;
64903;SDS011;51401;48.882;12.598;2023-03-23T05:59:40;10.32;;;8.27;;
64903;SDS011;51401;48.882;12.598;2023-03-23T06:02:05;11.70;;;8.43;;
64903;SDS011;51401;48.882;12.598;2023-03-23T06:04:31;11.55;;;8.52;;
64903;SDS011;51401;48.882;12.598;2023-03-23T06:07:00;9.75;;;7.68;;
64903;SDS011;51401;48.882;12.598;2023-03-23T06:09:27;10.45;;;8.38;;
64903;SDS011;51401;48.882;12.598;2023-03-23T06:11:53;9.95;;;7.97;;
64903;SDS011;51401;48.882;12.598;2023-03-23T06:14:18;11.65;;;8.52;;
64903;SDS011;51401;48.882;12.598;2023-03-23T06:16:43;9.23;;;7.50;;
64903;SDS011;51401;48.882;12.598;2023-03-23T06:19:09;10.35;;;8.35;;
64903;SDS011;51401;48.882;12.598;2023-03-23T06:21:36;11.95;;;8.57;;
64903;SDS011;51401;48.882;12.598;2023-03-23T06:24:02;12.65;;;8.50;;
64903;SDS011;51401;48.882;12.598;2023-03-23T06:26:38;12.80;;;8.35;;
64903;SDS011;51401;48.882;12.598;2023-03-23T06:29:05;9.77;;;7.47;;
64903;SDS011;51401;48.882;12.598;2023-03-23T06:31:36;11.93;;;8.63;;
64903;SDS011;51401;48.882;12.598;2023-03-23T06:34:03;12.80;;;8.55;;
64903;SDS011;51401;48.882;12.598;2023-03-23T06:36:29;11.98;;;8.43;;
64903;SDS011;51401;48.882;12.598;2023-03-23T06:38:54;11.20;;;8.18;;
64903;SDS011;51401;48.882;12.598;2023-03-23T06:41:20;10.40;;;8.60;;
64903;SDS011;51401;48.882;12.598;2023-03-23T06:43:46;10.98;;;7.85;;
64903;SDS011;51401;48.882;12.598;2023-03-23T06:46:11;11.43;;;8.45;;
64903;SDS011;51401;48.882;12.598;2023-03-23T06:48:37;10.95;;;8.40;;
64903;SDS011;51401;48.882;12.598;2023-03-23T06:51:03;11.13;;;8.75;;
64903;SDS011;51401;48.882;12.598;2023-03-23T06:53:29;11.77;;;8.25;;
64903;SDS011;51401;48.882;12.598;2023-03-23T06:55:54;12.32;;;9.07;;
64903;SDS011;51401;48.882;12.598;2023-03-23T06:58:20;11.68;;;8.70;;
64903;SDS011;51401;48.882;12.598;2023-03-23T07:00:47;10.80;;;8.30;;
64903;SDS011;51401;48.882;12.598;2023-03-23T07:03:12;10.07;;;7.80;;
64903;SDS011;51401;48.882;12.598;2023-03-23T07:05:38;13.98;;;9.00;;
64903;SDS011;51401;48.882;12.598;2023-03-23T07:08:03;9.77;;;8.40;;
64903;SDS011;51401;48.882;12.598;2023-03-23T07:10:29;10.50;;;8.38;;
64903;SDS011;51401;48.882;12.598;2023-03-23T07:12:54;10.02;;;8.43;;
64903;SDS011;51401;48.882;12.598;2023-03-23T07:15:20;10.43;;;8.75;;
64903;SDS011;51401;48.882;12.598;2023-03-23T07:17:46;12.70;;;8.95;;
64903;SDS011;51401;48.882;12.598;2023-03-23T07:20:12;12.65;;;8.70;;
64903;SDS011;51401;48.882;12.598;2023-03-23T07:22:37;11.63;;;8.80;;
64903;SDS011;51401;48.882;12.598;2023-03-23T07:25:03;10.18;;;7.78;;
64903;SDS011;51401;48.882;12.598;2023-03-23T07:27:32;11.45;;;8.95;;
64903;SDS011;51401;48.882;12.598;2023-03-23T07:30:10;10.02;;;8.25;;
64903;SDS011;51401;48.882;12.598;2023-03-23T07:32:37;10.95;;;9.10;;
64903;SDS011;51401;48.882;12.598;2023-03-23T07:35:28;12.50;;;9.93;;
64903;SDS011;51401;48.882;12.598;2023-03-23T07:37:54;10.13;;;8.30;;
64903;SDS011;51401;48.882;12.598;2023-03-23T07:40:20;10.23;;;9.10;;
64903;SDS011;51401;48.882;12.598;2023-03-23T07:42:52;11.07;;;9.13;;
64903;SDS011;51401;48.882;12.598;2023-03-23T07:47:51;13.25;;;9.10;;
64903;SDS011;51401;48.882;12.598;2023-03-23T07:50:18;9.98;;;8.18;;
64903;SDS011;51401;48.882;12.598;2023-03-23T07:52:46;11.13;;;8.73;;
64903;SDS011;51401;48.882;12.598;2023-03-23T07:55:11;10.23;;;8.32;;
64903;SDS011;51401;48.882;12.598;2023-03-23T07:57:42;12.45;;;8.85;;
64903;SDS011;51401;48.882;12.598;2023-03-23T08:00:08;14.38;;;8.18;;
64903;SDS011;51401;48.882;12.598;2023-03-23T08:02:37;12.20;;;9.48;;
64903;SDS011;51401;48.882;12.598;2023-03-23T08:05:02;10.98;;;8.70;;
64903;SDS011;51401;48.882;12.598;2023-03-23T08:07:28;12.32;;;8.88;;
64903;SDS011;51401;48.882;12.598;2023-03-23T08:09:53;11.02;;;9.05;;
64903;SDS011;51401;48.882;12.598;2023-03-23T08:12:18;11.82;;;8.73;;
64903;SDS011;51401;48.882;12.598;2023-03-23T08:14:44;9.77;;;8.10;;
64903;SDS011;51401;48.882;12.598;2023-03-23T08:17:09;10.23;;;7.57;;
64903;SDS011;51401;48.882;12.598;2023-03-23T08:19:35;10.55;;;8.05;;
64903;SDS011;51401;48.882;12.598;2023-03-23T08:22:04;10.43;;;8.20;;
64903;SDS011;51401;48.882;12.598;2023-03-23T08:24:30;13.55;;;8.57;;
64903;SDS011;51401;48.882;12.598;2023-03-23T08:26:57;9.93;;;8.13;;
64903;SDS011;51401;48.882;12.598;2023-03-23T08:29:22;10.18;;;7.80;;
64903;SDS011;51401;48.882;12.598;2023-03-23T08:31:48;10.80;;;9.13;;
64903;SDS011;51401;48.882;12.598;2023-03-23T08:34:13;9.20;;;7.17;;
64903;SDS011;51401;48.882;12.598;2023-03-23T08:36:40;9.30;;;7.65;;
64903;SDS011;51401;48.882;12.598;2023-03-23T08:39:08;8.60;;;7.22;;
64903;SDS011;51401;48.882;12.598;2023-03-23T08:41:33;9.35;;;7.88;;
64903;SDS011;51401;48.882;12.598;2023-03-23T08:43:59;10.45;;;7.45;;
64903;SDS011;51401;48.882;12.598;2023-03-23T08:46:24;9.30;;;7.80;;
64903;SDS011;51401;48.882;12.598;2023-03-23T08:48:49;11.40;;;7.35;;
64903;SDS011;51401;48.882;12.598;2023-03-23T08:51:15;12.40;;;7.95;;
64903;SDS011;51401;48.882;12.598;2023-03-23T08:53:41;9.30;;;7.85;;
64903;SDS011;51401;48.882;12.598;2023-03-23T08:56:08;10.43;;;8.25;;
64903;SDS011;51401;48.882;12.598;2023-03-23T08:58:36;8.30;;;7.00;;
64903;SDS011;51401;48.882;12.598;2023-03-23T09:01:02;8.98;;;7.90;;
64903;SDS011;51401;48.882;12.598;2023-03-23T09:03:28;8.60;;;7.72;;
64903;SDS011;51401;48.882;12.598;2023-03-23T09:05:57;9.35;;;6.88;;
64903;SDS011;51401;48.882;12.598;2023-03-23T09:08:25;8.75;;;6.72;;
64903;SDS011;51401;48.882;12.598;2023-03-23T09:10:50;10.55;;;7.30;;
64903;SDS011;51401;48.882;12.598;2023-03-23T09:13:16;7.63;;;6.82;;
64903;SDS011;51401;48.882;12.598;2023-03-23T09:15:41;8.35;;;6.90;;
64903;SDS011;51401;48.882;12.598;2023-03-23T09:18:06;10.40;;;8.23;;
64903;SDS011;51401;48.882;12.598;2023-03-23T09:20:31;14.03;;;10.57;;
64903;SDS011;51401;48.882;12.598;2023-03-23T09:22:57;7.95;;;7.15;;
64903;SDS011;51401;48.882;12.598;2023-03-23T09:25:24;8.07;;;7.28;;
64903;SDS011;51401;48.882;12.598;2023-03-23T09:27:52;8.38;;;7.00;;
64903;SDS011;51401;48.882;12.598;2023-03-23T09:30:21;9.35;;;7.88;;
64903;SDS011;51401;48.882;12.598;2023-03-23T09:32:48;9.50;;;7.95;;
64903;SDS011;51401;48.882;12.598;2023-03-23T09:35:14;8.00;;;7.20;;
64903;SDS011;51401;48.882;12.598;2023-03-23T09:37:41;9.65;;;8.02;;
64903;SDS011;51401;48.882;12.598;2023-03-23T09:40:14;8.70;;;6.78;;
64903;SDS011;51401;48.882;12.598;2023-03-23T09:50:21;11.38;;;9.80;;
64903;SDS011;51401;48.882;12.598;2023-03-23T09:52:53;10.85;;;7.80;;
64903;SDS011;51401;48.882;12.598;2023-03-23T09:55:22;9.55;;;7.45;;
64903;SDS011;51401;48.882;12.598;2023-03-23T09:57:51;10.02;;;7.60;;
64903;SDS011;51401;48.882;12.598;2023-03-23T10:00:23;8.65;;;6.82;;
64903;SDS011;51401;48.882;12.598;2023-03-23T10:02:58;8.30;;;6.57;;
64903;SDS011;51401;48.882;12.598;2023-03-23T10:05:40;10.07;;;7.30;;
64903;SDS011;51401;48.882;12.598;2023-03-23T10:16:25;8.23;;;7.45;;
64903;SDS011;51401;48.882;12.598;2023-03-23T10:19:03;9.95;;;7.82;;
64903;SDS011;51401;48.882;12.598;2023-03-23T10:21:37;9.38;;;6.93;;
64903;SDS011;51401;48.882;12.598;2023-03-23T10:24:08;8.88;;;7.13;;
64903;SDS011;51401;48.882;12.598;2023-03-23T10:29:35;10.40;;;8.00;;
64903;SDS011;51401;48.882;12.598;2023-03-23T10:34:52;14.38;;;7.53;;
64903;SDS011;51401;48.882;12.598;2023-03-23T10:37:23;8.15;;;6.82;;
64903;SDS011;51401;48.882;12.598;2023-03-23T10:42:23;11.88;;;7.72;;
64903;SDS011;51401;48.882;12.598;2023-03-23T10:44:51;22.50;;;16.38;;
64903;SDS011;51401;48.882;12.598;2023-03-23T10:47:17;7.53;;;6.75;;
64903;SDS011;51401;48.882;12.598;2023-03-23T10:49:56;8.00;;;7.20;;
64903;SDS011;51401;48.882;12.598;2023-03-23T10:54:56;10.05;;;7.50;;
64903;SDS011;51401;48.882;12.598;2023-03-23T10:57:30;8.65;;;7.70;;
64903;SDS011;51401;48.882;12.598;2023-03-23T11:00:06;8.00;;;7.18;;
64903;SDS011;51401;48.882;12.598;2023-03-23T11:02:41;8.02;;;6.68;;
64903;SDS011;51401;48.882;12.598;2023-03-23T11:05:21;9.88;;;6.82;;
64903;SDS011;51401;48.882;12.598;2023-03-23T11:07:53;8.50;;;7.70;;
64903;SDS011;51401;48.882;12.598;2023-03-23T11:10:25;8.23;;;7.40;;
64903;SDS011;51401;48.882;12.598;2023-03-23T11:12:53;8.40;;;7.57;;
64903;SDS011;51401;48.882;12.598;2023-03-23T11:15:36;11.15;;;9.98;;
64903;SDS011;51401;48.882;12.598;2023-03-23T11:18:09;9.88;;;7.10;;
64903;SDS011;51401;48.882;12.598;2023-03-23T11:20:44;8.25;;;6.75;;
64903;SDS011;51401;48.882;12.598;2023-03-23T11:23:20;9.00;;;6.85;;
64903;SDS011;51401;48.882;12.598;2023-03-23T11:28:37;9.55;;;7.35;;
64903;SDS011;51401;48.882;12.598;2023-03-23T11:31:07;8.73;;;7.18;;
64903;SDS011;51401;48.882;12.598;2023-03-23T11:33:47;6.28;;;5.65;;
64903;SDS011;51401;48.882;12.598;2023-03-23T11:36:17;9.38;;;6.57;;
64903;SDS011;51401;48.882;12.598;2023-03-23T11:38:43;6.45;;;5.85;;
64903;SDS011;51401;48.882;12.598;2023-03-23T11:41:10;10.30;;;8.52;;
64903;SDS011;51401;48.882;12.598;2023-03-23T11:43:44;7.80;;;6.10;;
64903;SDS011;51401;48.882;12.598;2023-03-23T11:46:13;6.22;;;5.30;;
64903;SDS011;51401;48.882;12.598;2023-03-23T11:48:52;6.47;;;4.78;;
64903;SDS011;51401;48.882;12.598;2023-03-23T11:51:34;5.20;;;4.32;;
64903;SDS011;51401;48.882;12.598;2023-03-23T11:56:55;8.98;;;3.70;;
64903;SDS011;51401;48.882;12.598;2023-03-23T11:59:54;9.90;;;4.63;;
64903;SDS011;51401;48.882;12.598;2023-03-23T12:02:23;5.05;;;4.40;;
64903;SDS011;51401;48.882;12.598;2023-03-23T12:22:09;4.00;;;2.60;;
64903;SDS011;51401;48.882;12.598;2023-03-23T12:25:09;3.85;;;2.35;;
64903;SDS011;51401;48.882;12.598;2023-03-23T12:33:56;4.75;;;2.65;;
64903;SDS011;51401;48.882;12.598;2023-03-23T12:36:44;4.45;;;3.05;;
64903;SDS011;51401;48.882;12.598;2023-03-23T12:41:57;26.27;;;3.90;;
64903;SDS011;51401;48.882;12.598;2023-03-23T12:44:46;12.38;;;2.53;;
64903;SDS011;51401;48.882;12.598;2023-03-23T12:47:21;4.35;;;1.80;;
64903;SDS011;51401;48.882;12.598;2023-03-23T12:53:05;4.85;;;2.33;;
64903;SDS011;51401;48.882;12.598;2023-03-23T12:55:42;4.90;;;1.95;;
64903;SDS011;51401;48.882;12.598;2023-03-23T12:58:15;5.53;;;1.80;;
64903;SDS011;51401;48.882;12.598;2023-03-23T13:03:14;8.40;;;2.50;;
64903;SDS011;51401;48.882;12.598;2023-03-23T13:05:49;2.72;;;1.90;;
64903;SDS011;51401;48.882;12.598;2023-03-23T13:08:23;4.07;;;2.20;;
64903;SDS011;51401;48.882;12.598;2023-03-23T13:10:53;2.55;;;1.70;;
64903;SDS011;51401;48.882;12.598;2023-03-23T13:13:23;4.38;;;1.98;;
64903;SDS011;51401;48.882;12.598;2023-03-23T13:18:23;4.05;;;1.83;;
64903;SDS011;51401;48.882;12.598;2023-03-23T13:20:58;3.75;;;1.95;;
64903;SDS011;51401;48.882;12.598;2023-03-23T13:23:31;11.55;;;2.40;;
64903;SDS011;51401;48.882;12.598;2023-03-23T13:26:03;4.53;;;1.90;;
64903;SDS011;51401;48.882;12.598;2023-03-23T13:28:33;5.00;;;1.90;;
64903;SDS011;51401;48.882;12.598;2023-03-23T13:31:13;2.95;;;2.17;;
64903;SDS011;51401;48.882;12.598;2023-03-23T13:33:50;1.90;;;1.60;;
64903;SDS011;51401;48.882;12.598;2023-03-23T13:36:19;2.85;;;1.75;;
64903;SDS011;51401;48.882;12.598;2023-03-23T13:38:53;2.95;;;2.03;;
64903;SDS011;51401;48.882;12.598;2023-03-23T13:41:19;2.20;;;1.73;;
64903;SDS011;51401;48.882;12.598;2023-03-23T13:43:46;2.65;;;1.98;;
64903;SDS011;51401;48.882;12.598;2023-03-23T13:46:23;5.28;;;2.13;;
64903;SDS011;51401;48.882;12.598;2023-03-23T13:49:15;2.20;;;1.70;;
64903;SDS011;51401;48.882;12.598;2023-03-23T13:51:56;7.13;;;1.88;;
64903;SDS011;51401;48.882;12.598;2023-03-23T13:54:30;4.63;;;1.80;;
64903;SDS011;51401;48.882;12.598;2023-03-23T13:59:56;3.83;;;1.70;;
64903;SDS011;51401;48.882;12.598;2023-03-23T14:02:31;5.18;;;1.63;;
64903;SDS011;51401;48.882;12.598;2023-03-23T14:05:42;6.47;;;2.00;;
64903;SDS011;51401;48.882;12.598;2023-03-23T14:07:55;3.60;;;1.85;;
64903;SDS011;51401;48.882;12.598;2023-03-23T14:10:24;2.83;;;1.98;;
64903;SDS011;51401;48.882;12.598;2023-03-23T14:12:57;3.17;;;1.73;;
64903;SDS011;51401;48.882;12.598;2023-03-23T14:15:27;5.20;;;2.75;;
64903;SDS011;51401;48.882;12.598;2023-03-23T14:17:54;3.30;;;1.73;;
64903;SDS011;51401;48.882;12.598;2023-03-23T14:20:29;3.22;;;1.92;;
64903;SDS011;51401;48.882;12.598;2023-03-23T14:22:58;3.83;;;1.95;;
64903;SDS011;51401;48.882;12.598;2023-03-23T14:25:26;3.15;;;1.50;;
64903;SDS011;51401;48.882;12.598;2023-03-23T14:27:53;2.75;;;1.70;;
64903;SDS011;51401;48.882;12.598;2023-03-23T14:30:20;2.90;;;1.73;;
64903;SDS011;51401;48.882;12.598;2023-03-23T14:32:47;3.97;;;1.55;;
64903;SDS011;51401;48.882;12.598;2023-03-23T14:35:17;3.22;;;1.55;;
64903;SDS011;51401;48.882;12.598;2023-03-23T14:37:44;3.55;;;1.75;;
64903;SDS011;51401;48.882;12.598;2023-03-23T14:40:14;3.40;;;1.75;;
64903;SDS011;51401;48.882;12.598;2023-03-23T14:42:41;3.92;;;2.17;;
64903;SDS011;51401;48.882;12.598;2023-03-23T14:45:07;3.95;;;1.70;;
64903;SDS011;51401;48.882;12.598;2023-03-23T14:47:40;1.88;;;1.63;;
64903;SDS011;51401;48.882;12.598;2023-03-23T14:50:23;5.10;;;2.10;;
64903;SDS011;51401;48.882;12.598;2023-03-23T14:52:56;1.92;;;1.52;;
64903;SDS011;51401;48.882;12.598;2023-03-23T14:55:23;2.20;;;1.70;;
64903;SDS011;51401;48.882;12.598;2023-03-23T14:57:51;5.95;;;2.60;;
64903;SDS011;51401;48.882;12.598;2023-03-23T15:00:28;6.72;;;2.13;;
64903;SDS011;51401;48.882;12.598;2023-03-23T15:02:57;7.93;;;2.47;;
64903;SDS011;51401;48.882;12.598;2023-03-23T15:05:27;8.57;;;3.45;;
64903;SDS011;51401;48.882;12.598;2023-03-23T15:08:05;7.40;;;2.80;;
64903;SDS011;51401;48.882;12.598;2023-03-23T15:10:35;5.53;;;2.40;;
64903;SDS011;51401;48.882;12.598;2023-03-23T15:13:00;4.50;;;2.43;;
64903;SDS011;51401;48.882;12.598;2023-03-23T15:15:29;2.83;;;2.13;;
64903;SDS011;51401;48.882;12.598;2023-03-23T15:17:57;7.65;;;3.15;;
64903;SDS011;51401;48.882;12.598;2023-03-23T15:20:27;17.63;;;4.05;;
64903;SDS011;51401;48.882;12.598;2023-03-23T15:23:12;13.05;;;3.90;;
64903;SDS011;51401;48.882;12.598;2023-03-23T15:25:46;4.03;;;2.60;;
64903;SDS011;51401;48.882;12.598;2023-03-23T15:28:17;3.83;;;2.38;;
64903;SDS011;51401;48.882;12.598;2023-03-23T15:33:17;3.20;;;2.15;;
64903;SDS011;51401;48.882;12.598;2023-03-23T15:35:48;4.88;;;2.33;;
64903;SDS011;51401;48.882;12.598;2023-03-23T15:38:19;4.75;;;2.38;;
64903;SDS011;51401;48.882;12.598;2023-03-23T15:40:56;4.00;;;2.80;;
64903;SDS011;51401;48.882;12.598;2023-03-23T15:43:37;9.07;;;2.78;;
64903;SDS011;51401;48.882;12.598;2023-03-23T15:51:12;3.55;;;2.15;;
64903;SDS011;51401;48.882;12.598;2023-03-23T15:53:38;3.30;;;2.38;;
64903;SDS011;51401;48.882;12.598;2023-03-23T15:56:05;5.70;;;2.70;;
64903;SDS011;51401;48.882;12.598;2023-03-23T15:58:32;8.07;;;2.88;;
64903;SDS011;51401;48.882;12.598;2023-03-23T16:00:59;9.43;;;2.88;;
64903;SDS011;51401;48.882;12.598;2023-03-23T16:03:41;4.30;;;2.50;;
64903;SDS011;51401;48.882;12.598;2023-03-23T16:06:15;3.50;;;1.95;;
64903;SDS011;51401;48.882;12.598;2023-03-23T16:08:42;3.60;;;2.53;;
64903;SDS011;51401;48.882;12.598;2023-03-23T16:11:10;4.28;;;2.75;;
64903;SDS011;51401;48.882;12.598;2023-03-23T16:13:37;4.50;;;2.75;;
64903;SDS011;51401;48.882;12.598;2023-03-23T16:16:02;3.10;;;2.30;;
64903;SDS011;51401;48.882;12.598;2023-03-23T16:18:29;4.70;;;2.47;;